Time;durP1;ratioP1;P1;durP2;ratioP2;P2;SDS_P1;SDS_P2;PMS_P1;PMS_P2;Temp;Humidity;BMP_temperature;BMP_pressure;BME280_temperature;BME280_humidity;BME280_pressure;Samples;Min_cycle;Max_cycle;Signal;HPM_P1;HPM_P2
2022/11/24 00:00:17;;;;;;;0.50;0.50;;;;;;;5.19;92.06;96191.78;29395;238;63009;-58
2022/11/24 00:00:48;;;;;;;0.60;0.60;;;;;;;5.20;92.34;96193.38;29395;246;63005;-56
2022/11/24 00:01:22;;;;;;;0.50;0.50;;;;;;;5.20;92.30;96185.31;29395;218;63009;-74
2022/11/24 00:01:54;;;;;;;0.50;0.50;;;;;;;5.19;92.20;96189.09;29395;280;63004;-57
2022/11/24 00:02:31;;;;;;;0.60;0.60;;;;;;;5.19;92.22;96193.69;29394;221;64013;-57
2022/11/24 00:03:04;;;;;;;0.60;0.60;;;;;;;5.17;92.46;96180.50;29395;224;63008;-56
2022/11/24 00:03:36;;;;;;;0.55;0.55;;;;;;;5.18;92.35;96186.69;29395;298;63009;-58
2022/11/24 00:04:10;;;;;;;0.60;0.60;;;;;;;5.16;92.38;96189.66;29395;218;63004;-58
2022/11/24 00:04:41;;;;;;;0.60;0.60;;;;;;;5.16;92.49;96189.66;29395;196;63008;-57
2022/11/24 00:05:12;;;;;;;0.60;0.60;;;;;;;5.16;92.49;96189.66;29395;228;63004;-58
2022/11/24 00:05:44;;;;;;;0.60;0.60;;;;;;;5.17;92.52;96195.84;29395;228;63009;-57
2022/11/24 00:06:15;;;;;;;0.50;0.50;;;;;;;5.18;92.57;96192.88;29395;259;63005;-74
2022/11/24 00:06:47;;;;;;;0.60;0.60;;;;;;;5.19;92.51;96191.78;29395;230;63009;-57
2022/11/24 00:07:18;;;;;;;0.50;0.50;;;;;;;5.18;92.57;96192.88;29395;219;63005;-57
2022/11/24 00:07:49;;;;;;;0.52;0.52;;;;;;;5.17;92.79;96193.94;29394;210;64013;-57
2022/11/24 00:08:21;;;;;;;0.60;0.60;;;;;;;5.17;92.75;96191.25;29395;369;63005;-57
2022/11/24 00:08:53;;;;;;;0.52;0.52;;;;;;;5.17;92.73;96185.88;29395;229;63009;-76
2022/11/24 00:09:24;;;;;;;0.50;0.50;;;;;;;5.19;92.45;96183.72;29395;215;63004;-57
2022/11/24 00:09:55;;;;;;;0.50;0.50;;;;;;;5.23;92.42;96190.13;29395;252;63009;-57
2022/11/24 00:10:26;;;;;;;0.50;0.50;;;;;;;5.24;92.52;96181.00;29395;217;63004;-58
2022/11/24 00:11:03;;;;;;;0.50;0.50;;;;;;;5.30;92.24;96184.47;29395;222;63009;-57
2022/11/24 00:11:35;;;;;;;0.60;0.60;;;;;;;5.34;91.99;96174.75;29395;201;63004;-58
2022/11/24 00:12:07;;;;;;;0.60;0.60;;;;;;;5.38;91.52;96186.59;29394;197;64014;-57
2022/11/24 00:12:38;;;;;;;0.50;0.50;;;;;;;5.41;91.51;96187.91;29395;216;63005;-57
2022/11/24 00:13:09;;;;;;;0.55;0.55;;;;;;;5.42;91.01;96181.47;29395;207;63009;-57
2022/11/24 00:13:41;;;;;;;0.60;0.60;;;;;;;5.45;91.12;96183.59;29395;281;63005;-58
2022/11/24 00:14:12;;;;;;;0.60;0.60;;;;;;;5.44;91.04;96187.38;29395;202;63009;-57
2022/11/24 00:14:45;;;;;;;0.60;0.60;;;;;;;5.40;90.86;96179.03;29395;225;63005;-57
2022/11/24 00:15:17;;;;;;;0.60;0.60;;;;;;;5.43;90.98;96186.56;29395;219;63009;-57
2022/11/24 00:15:48;;;;;;;0.60;0.60;;;;;;;5.44;90.57;96185.47;29395;199;63005;-57
2022/11/24 00:16:22;;;;;;;0.57;0.57;;;;;;;5.46;90.54;96182.50;29395;291;63014;-72
2022/11/24 00:16:53;;;;;;;0.50;0.50;;;;;;;5.45;90.64;96186.28;29394;238;64004;-56
2022/11/24 00:17:28;;;;;;;0.50;0.50;;;;;;;5.45;90.76;96191.66;29394;212;64013;-58
2022/11/24 00:17:59;;;;;;;0.50;0.50;;;;;;;5.43;90.65;96188.44;29395;281;63004;-57
2022/11/24 00:18:33;;;;;;;0.60;0.60;;;;;;;5.42;90.31;96192.22;29395;265;63009;-57
2022/11/24 00:19:10;;;;;;;0.60;0.60;;;;;;;5.40;90.91;96184.41;29395;238;63004;-57
2022/11/24 00:19:41;;;;;;;0.60;0.60;;;;;;;5.38;90.71;96187.38;29395;249;63009;-57
2022/11/24 00:20:12;;;;;;;0.60;0.60;;;;;;;5.38;90.96;96187.38;29395;279;63005;-57
2022/11/24 00:20:51;;;;;;;0.60;0.60;;;;;;;5.41;91.17;96187.91;29395;205;63009;-57
2022/11/24 00:21:24;;;;;;;0.60;0.60;;;;;;;5.41;90.66;96186.03;29394;202;64009;-57
2022/11/24 00:21:57;;;;;;;0.60;0.60;;;;;;;5.46;90.78;96183.31;29394;204;64013;-57
2022/11/24 00:22:28;;;;;;;0.50;0.50;;;;;;;5.44;90.86;96187.38;29395;204;63005;-57
2022/11/24 00:23:00;;;;;;;0.50;0.50;;;;;;;5.42;90.98;96189.53;29395;216;63016;-57
2022/11/24 00:23:32;;;;;;;0.50;0.50;;;;;;;5.39;91.12;96189.00;29395;210;63005;-57
2022/11/24 00:24:05;;;;;;;0.60;0.60;;;;;;;5.36;91.43;96188.75;29395;230;63026;-57
2022/11/24 00:24:39;;;;;;;0.50;0.50;;;;;;;5.34;91.54;96198.97;29395;225;63004;-57
2022/11/24 00:25:10;;;;;;;0.60;0.60;;;;;;;5.33;91.64;96190.09;29395;303;63009;-57
2022/11/24 00:25:41;;;;;;;0.50;0.50;;;;;;;5.33;91.44;96192.78;29395;218;63004;-58
2022/11/24 00:26:15;;;;;;;0.50;0.50;;;;;;;5.32;91.37;96188.50;29395;375;63004;-56
2022/11/24 00:26:46;;;;;;;0.50;0.50;;;;;;;5.31;91.10;96192.25;29394;221;64008;-56
2022/11/24 00:27:18;;;;;;;0.50;0.50;;;;;;;5.30;91.71;96196.03;29395;240;63009;-57
2022/11/24 00:27:49;;;;;;;0.50;0.50;;;;;;;5.30;91.72;96196.03;29395;253;63005;-58
2022/11/24 00:28:20;;;;;;;0.60;0.60;;;;;;;5.32;91.47;96196.56;29394;219;64006;-57
2022/11/24 00:28:54;;;;;;;0.50;0.50;;;;;;;5.33;91.54;96198.16;29395;320;63005;-57
2022/11/24 00:29:25;;;;;;;0.50;0.50;;;;;;;5.34;91.47;96201.66;29395;210;63009;-57
2022/11/24 00:29:58;;;;;;;0.50;0.50;;;;;;;5.34;91.47;96197.09;29395;209;63018;-57
2022/11/24 00:30:29;;;;;;;0.60;0.60;;;;;;;5.34;91.25;96199.78;29395;229;63009;-59
2022/11/24 00:31:12;;;;;;;0.50;0.50;;;;;;;5.35;91.10;96198.69;29395;235;63005;-57
2022/11/24 00:31:44;;;;;;;0.50;0.50;;;;;;;5.38;91.48;96191.97;29395;213;63009;-58
2022/11/24 00:32:15;;;;;;;0.57;0.57;;;;;;;5.43;91.18;96193.81;29395;230;63004;-57
2022/11/24 00:32:48;;;;;;;0.60;0.60;;;;;;;5.46;90.66;96194.09;29394;202;64013;-57
2022/11/24 00:33:19;;;;;;;0.60;0.60;;;;;;;5.48;90.54;96201.88;29395;202;63004;-58
2022/11/24 00:33:52;;;;;;;0.50;0.50;;;;;;;5.46;90.69;96201.34;29395;266;63008;-57
2022/11/24 00:34:24;;;;;;;0.50;0.50;;;;;;;5.44;91.00;96203.50;29395;202;63004;-57
2022/11/24 00:34:55;;;;;;;0.50;0.50;;;;;;;5.42;90.72;96202.97;29395;223;63009;-58
2022/11/24 00:35:26;;;;;;;0.50;0.50;;;;;;;5.41;91.02;96201.38;29395;275;63005;-57
2022/11/24 00:35:59;;;;;;;0.50;0.50;;;;;;;5.38;91.13;96208.09;29395;216;63009;-57
2022/11/24 00:36:32;;;;;;;0.60;0.60;;;;;;;5.39;90.88;96199.75;29395;319;63005;-57
2022/11/24 00:37:03;;;;;;;0.50;0.50;;;;;;;5.41;91.01;96193.28;29395;222;63009;-57
2022/11/24 00:37:35;;;;;;;0.50;0.50;;;;;;;5.45;91.05;96202.44;29395;227;63005;-58
2022/11/24 00:38:06;;;;;;;0.50;0.50;;;;;;;5.47;90.80;96211.03;29394;219;64013;-58
2022/11/24 00:38:37;;;;;;;0.60;0.60;;;;;;;5.45;90.37;96203.22;29395;214;63005;-57
2022/11/24 00:39:13;;;;;;;0.50;0.50;;;;;;;5.44;90.62;96206.19;29395;223;63009;-57
2022/11/24 00:39:44;;;;;;;0.60;0.60;;;;;;;5.43;90.55;96205.41;29395;202;63004;-57
2022/11/24 00:40:16;;;;;;;0.60;0.60;;;;;;;5.50;90.85;96207.78;29395;209;63009;-57
2022/11/24 00:40:47;;;;;;;0.50;0.50;;;;;;;5.53;90.46;96207.25;29395;258;63004;-60
2022/11/24 00:41:18;;;;;;;0.52;0.52;;;;;;;5.58;90.44;96212.56;29395;208;63009;-58
2022/11/24 00:41:50;;;;;;;0.60;0.60;;;;;;;5.59;90.00;96203.41;29395;226;63004;-58
2022/11/24 00:42:21;;;;;;;0.50;0.50;;;;;;;5.58;89.95;96207.19;29395;209;63009;-57
2022/11/24 00:42:53;;;;;;;0.50;0.50;;;;;;;5.55;89.67;96208.53;29395;203;63005;-57
2022/11/24 00:43:24;;;;;;;0.60;0.60;;;;;;;5.53;89.90;96209.94;29394;208;64014;-57
2022/11/24 00:43:56;;;;;;;0.60;0.60;;;;;;;5.55;89.92;96213.13;29395;265;63005;-57
2022/11/24 00:44:28;;;;;;;0.50;0.50;;;;;;;5.53;89.94;96212.63;29395;199;63009;-58
2022/11/24 00:44:59;;;;;;;0.60;0.60;;;;;;;5.51;90.14;96209.41;29395;241;63005;-57
2022/11/24 00:45:30;;;;;;;0.60;0.60;;;;;;;5.50;90.35;96205.09;29395;235;63009;-57
2022/11/24 00:46:02;;;;;;;0.60;0.60;;;;;;;5.49;90.23;96209.69;29395;216;63005;-58
2022/11/24 00:46:34;;;;;;;0.50;0.50;;;;;;;5.49;90.47;96198.09;29395;221;63009;-58
2022/11/24 00:47:06;;;;;;;0.50;0.50;;;;;;;5.46;90.63;96210.22;29395;203;63004;-57
2022/11/24 00:47:37;;;;;;;0.50;0.50;;;;;;;5.45;90.53;96214.00;29395;238;63009;-57
2022/11/24 00:48:08;;;;;;;0.57;0.57;;;;;;;5.45;90.70;96214.00;29395;199;63004;-57
2022/11/24 00:48:40;;;;;;;0.50;0.50;;;;;;;5.46;90.40;96214.81;29394;202;64013;-57
2022/11/24 00:49:11;;;;;;;0.50;0.50;;;;;;;5.45;90.48;96208.62;29395;262;63008;-58
2022/11/24 00:49:43;;;;;;;0.60;0.60;;;;;;;5.46;90.50;96212.13;29395;308;63008;-57
2022/11/24 00:50:15;;;;;;;0.57;0.57;;;;;;;5.48;90.62;96207.25;29395;202;63005;-58
2022/11/24 00:51:01;;;;;;;0.52;0.52;;;;;;;5.48;90.46;96215.34;29395;285;63009;-57
2022/11/24 00:51:33;;;;;;;0.57;0.57;;;;;;;5.46;90.50;96221.00;29395;236;63005;-57
2022/11/24 00:52:04;;;;;;;0.50;0.50;;;;;;;5.43;90.35;96218.03;29395;218;63009;-57
2022/11/24 00:52:35;;;;;;;0.50;0.50;;;;;;;5.45;90.52;96213.19;29395;221;63005;-58
2022/11/24 00:53:06;;;;;;;0.60;0.60;;;;;;;5.43;90.40;96207.28;29395;214;63009;-57
2022/11/24 00:53:38;;;;;;;0.50;0.50;;;;;;;5.42;90.42;96221.81;29395;238;63005;-57
2022/11/24 00:54:09;;;;;;;0.60;0.60;;;;;;;5.43;90.84;96209.97;29394;202;64013;-57
2022/11/24 00:54:42;;;;;;;0.90;0.80;;;;;;;5.50;90.46;96215.88;29395;213;63004;-57
2022/11/24 00:55:13;;;;;;;0.50;0.50;;;;;;;5.49;90.27;96216.94;29395;263;63009;-57
2022/11/24 00:55:48;;;;;;;0.57;0.57;;;;;;;5.46;90.29;96215.59;29394;202;64009;-57
2022/11/24 00:56:19;;;;;;;0.60;0.60;;;;;;;5.46;90.52;96214.81;29395;222;63009;-57
2022/11/24 00:56:51;;;;;;;0.60;0.60;;;;;;;5.48;90.05;96218.81;29395;225;63012;-57
2022/11/24 00:57:22;;;;;;;0.50;0.50;;;;;;;5.48;89.98;96218.81;29395;317;63009;-57
2022/11/24 00:57:53;;;;;;;0.50;0.50;;;;;;;5.44;89.97;96219.66;29395;199;63010;-57
2022/11/24 00:58:25;;;;;;;0.60;0.60;;;;;;;5.40;89.91;96216.72;29395;197;63009;-57
2022/11/24 00:58:57;;;;;;;0.50;0.50;;;;;;;5.36;90.24;96216.44;29394;227;64009;-58
2022/11/24 00:59:28;;;;;;;0.50;0.50;;;;;;;5.33;90.24;96219.69;29395;262;63009;-57
2022/11/24 00:59:59;;;;;;;0.50;0.50;;;;;;;5.31;90.38;96224.53;29395;203;63005;-57
2022/11/24 01:00:31;;;;;;;0.60;0.60;;;;;;;5.29;90.79;96234.75;29395;211;63009;-58
2022/11/24 01:01:12;;;;;;;0.50;0.50;;;;;;;5.27;91.06;96228.84;29395;220;63004;-58
2022/11/24 01:01:43;;;;;;;0.50;0.50;;;;;;;5.26;91.42;96226.44;29417;218;63009;-58
2022/11/24 01:02:14;;;;;;;0.55;0.55;;;;;;;5.25;91.35;96231.00;29395;227;63004;-57
2022/11/24 01:02:46;;;;;;;0.50;0.50;;;;;;;5.24;91.42;96225.91;29395;239;63009;-58
2022/11/24 01:03:19;;;;;;;0.50;0.50;;;;;;;5.21;91.54;96229.94;29395;251;63004;-59
2022/11/24 01:03:52;;;;;;;0.60;0.60;;;;;;;5.21;91.46;96229.94;29395;234;63008;-57
2022/11/24 01:04:24;;;;;;;0.60;0.60;;;;;;;5.21;91.37;96235.31;29394;232;64008;-57
2022/11/24 01:04:58;;;;;;;0.50;0.50;;;;;;;5.19;91.65;96237.50;29395;197;63009;-57
2022/11/24 01:05:29;;;;;;;0.50;0.50;;;;;;;5.19;91.86;96232.12;29395;221;63001;-57
2022/11/24 01:06:10;;;;;;;0.50;0.50;;;;;;;5.26;91.60;96227.25;29395;233;63009;-56
2022/11/24 01:06:41;;;;;;;;;;;;;;;5.28;91.28;96235.03;29996;982;6000;-57
2022/11/24 01:07:12;;;;;;;0.60;0.60;;;;;;;5.32;91.30;96230.72;29421;203;64009;-57
2022/11/24 01:07:46;;;;;;;0.50;0.50;;;;;;;5.39;90.80;96228.53;29395;236;63020;-58
2022/11/24 01:08:18;;;;;;;0.50;0.50;;;;;;;5.39;90.42;96242.00;29395;372;63007;-58
2022/11/24 01:08:49;;;;;;;0.57;0.57;;;;;;;5.43;90.20;96226.13;29394;289;64013;-58
2022/11/24 01:09:24;;;;;;;0.60;0.60;;;;;;;5.46;90.23;96236.31;29395;236;64000;-59
2022/11/24 01:10:00;;;;;;;0.60;0.60;;;;;;;5.47;89.99;96232.56;29396;227;63018;-57
2022/11/24 01:10:32;;;;;;;0.60;0.60;;;;;;;5.45;89.70;96234.72;29396;198;63004;-58
2022/11/24 01:11:13;;;;;;;0.60;0.60;;;;;;;5.45;89.87;96232.03;29395;212;63008;-58
2022/11/24 01:12:01;;;;;;;0.60;0.60;;;;;;;5.45;89.91;96234.72;29418;238;63005;-59
2022/11/24 01:12:34;;;;;;;0.55;0.55;;;;;;;5.43;89.76;96232.31;29396;307;63009;-57
2022/11/24 01:13:06;;;;;;;0.60;0.60;;;;;;;5.41;89.61;96239.84;29396;200;63005;-57
2022/11/24 01:13:38;;;;;;;0.50;0.50;;;;;;;5.38;89.82;96241.19;29396;207;63009;-57
2022/11/24 01:14:09;;;;;;;0.60;0.60;;;;;;;5.34;90.10;96240.12;29396;221;63005;-57
2022/11/24 01:14:40;;;;;;;0.50;0.50;;;;;;;5.28;90.44;96235.03;29395;202;64013;-58
2022/11/24 01:15:12;;;;;;;0.60;0.60;;;;;;;5.25;90.73;96236.37;29396;255;63005;-58
2022/11/24 01:15:43;;;;;;;0.60;0.60;;;;;;;5.25;90.41;96240.97;29396;209;63009;-57
2022/11/24 01:16:21;;;;;;;0.60;0.60;;;;;;;5.25;90.73;96239.09;29396;292;63004;-58
2022/11/24 01:16:53;;;;;;;0.50;0.50;;;;;;;5.29;90.75;96237.47;29396;214;63009;-58
2022/11/24 01:17:25;;;;;;;0.60;0.60;;;;;;;5.34;90.49;96237.44;29396;348;63004;-57
2022/11/24 01:17:56;;;;;;;0.50;0.50;;;;;;;5.36;90.07;96237.97;29396;314;63009;-58
2022/11/24 01:18:27;;;;;;;0.52;0.52;;;;;;;5.35;89.88;96238.25;29396;222;63004;-57
2022/11/24 01:19:00;;;;;;;0.60;0.60;;;;;;;5.36;90.25;96245.25;29396;210;63008;-58
2022/11/24 01:19:31;;;;;;;0.60;0.60;;;;;;;5.36;89.72;96248.72;29396;225;63005;-58
2022/11/24 01:20:04;;;;;;;0.60;0.60;;;;;;;5.33;89.59;96246.59;29395;205;64014;-57
2022/11/24 01:20:36;;;;;;;0.60;0.60;;;;;;;5.30;89.83;96249.03;29396;237;63005;-57
2022/11/24 01:21:07;;;;;;;0.60;0.60;;;;;;;5.27;90.06;96255.75;29396;206;63009;-58
2022/11/24 01:21:39;;;;;;;0.50;0.50;;;;;;;5.26;90.17;96245.25;29396;207;63009;-58
2022/11/24 01:22:10;;;;;;;0.50;0.50;;;;;;;5.25;90.22;96262.47;29396;230;63009;-58
2022/11/24 01:22:41;;;;;;;0.60;0.60;;;;;;;5.21;90.53;96253.34;29396;222;63005;-57
2022/11/24 01:23:13;;;;;;;0.50;0.50;;;;;;;5.16;90.43;96248.81;29396;198;63009;-57
2022/11/24 01:23:45;;;;;;;0.50;0.50;;;;;;;5.16;90.68;96248.81;29396;264;63004;-59
2022/11/24 01:24:16;;;;;;;0.57;0.57;;;;;;;5.15;90.68;96249.91;29396;220;63009;-57
2022/11/24 01:24:48;;;;;;;0.55;0.55;;;;;;;5.15;90.86;96252.59;29396;214;63004;-57
2022/11/24 01:25:19;;;;;;;0.50;0.50;;;;;;;5.13;90.66;96254.75;29395;202;64013;-58
2022/11/24 01:25:51;;;;;;;0.55;0.55;;;;;;;5.14;90.98;96250.97;29396;224;63004;-58
2022/11/24 01:26:25;;;;;;;0.60;0.60;;;;;;;5.13;90.99;96254.75;29396;227;63008;-77
2022/11/24 01:26:57;;;;;;;0.60;0.60;;;;;;;5.11;90.85;96262.28;29396;243;63005;-57
2022/11/24 01:27:28;;;;;;;0.55;0.55;;;;;;;5.12;91.23;96258.50;29396;237;63009;-57
2022/11/24 01:28:00;;;;;;;0.60;0.60;;;;;;;5.15;91.19;96257.97;29396;212;63005;-59
2022/11/24 01:28:31;;;;;;;0.60;0.60;;;;;;;5.16;91.15;96259.56;29396;204;63009;-57
2022/11/24 01:29:03;;;;;;;0.50;0.50;;;;;;;5.16;90.82;96248.81;29396;207;63005;-57
2022/11/24 01:29:35;;;;;;;0.50;0.50;;;;;;;5.18;91.21;96256.63;29396;231;63022;-57
2022/11/24 01:30:08;;;;;;;0.60;0.60;;;;;;;5.21;90.85;96262.22;29396;290;63005;-58
2022/11/24 01:30:39;;;;;;;0.50;0.50;;;;;;;5.22;90.75;96258.44;29395;207;64013;-58
2022/11/24 01:31:11;;;;;;;0.60;0.60;;;;;;;5.21;90.77;96262.22;29396;266;63004;-57
2022/11/24 01:31:42;;;;;;;0.50;0.50;;;;;;;5.20;90.90;96257.91;29396;206;63009;-57
2022/11/24 01:32:13;;;;;;;0.60;0.60;;;;;;;5.20;90.91;96260.59;29396;321;63004;-57
2022/11/24 01:32:44;;;;;;;0.50;0.50;;;;;;;5.18;91.17;96254.72;29396;198;63009;-57
2022/11/24 01:33:16;;;;;;;0.50;0.50;;;;;;;5.17;90.95;96261.19;29396;237;63004;-57
2022/11/24 01:33:47;;;;;;;0.52;0.52;;;;;;;5.17;91.08;96261.19;29396;205;63008;-56
2022/11/24 01:34:18;;;;;;;0.60;0.60;;;;;;;5.19;91.28;96264.41;29396;247;63005;-58
2022/11/24 01:34:49;;;;;;;0.50;0.50;;;;;;;5.20;91.18;96270.59;29396;243;63009;-57
2022/11/24 01:35:22;;;;;;;0.50;0.50;;;;;;;5.19;91.12;96268.97;29396;365;63005;-74
2022/11/24 01:35:55;;;;;;;0.50;0.50;;;;;;;5.17;91.21;96263.06;29395;220;64013;-57
2022/11/24 01:36:26;;;;;;;0.50;0.50;;;;;;;5.23;91.36;96267.34;29396;225;63005;-57
2022/11/24 01:36:58;;;;;;;0.60;0.60;;;;;;;5.22;91.37;96263.84;29396;230;63009;-57
2022/11/24 01:37:31;;;;;;;0.50;0.50;;;;;;;5.23;91.14;96264.63;29396;228;63011;-57
2022/11/24 01:38:02;;;;;;;0.50;0.50;;;;;;;5.22;91.08;96263.03;29396;300;63009;-57
2022/11/24 01:38:33;;;;;;;0.50;0.50;;;;;;;5.22;91.30;96269.22;29396;202;63008;-58
2022/11/24 01:39:05;;;;;;;0.55;0.55;;;;;;;5.22;91.40;96269.22;29396;256;63026;-57
2022/11/24 01:39:36;;;;;;;0.50;0.50;;;;;;;5.23;91.27;96267.34;29396;203;63004;-57
2022/11/24 01:40:09;;;;;;;0.50;0.50;;;;;;;5.25;91.30;96268.66;29396;308;63009;-57
2022/11/24 01:40:40;;;;;;;0.50;0.50;;;;;;;5.28;91.36;96262.75;29396;207;63004;-57
2022/11/24 01:41:18;;;;;;;0.50;0.50;;;;;;;5.32;90.85;96271.88;29395;203;64013;-57
2022/11/24 01:41:51;;;;;;;0.50;0.50;;;;;;;5.32;90.94;96277.25;29396;197;63005;-57
2022/11/24 01:42:23;;;;;;;0.50;0.50;;;;;;;5.34;91.01;96271.59;29396;231;63009;-57
2022/11/24 01:42:54;;;;;;;0.50;0.50;;;;;;;5.33;90.88;96276.19;29396;268;63005;-57
2022/11/24 01:43:25;;;;;;;0.60;0.60;;;;;;;5.32;90.85;96271.06;29396;228;63009;-58
2022/11/24 01:43:57;;;;;;;0.50;0.50;;;;;;;5.29;90.80;96277.81;29396;227;63005;-57
2022/11/24 01:44:30;;;;;;;0.50;0.50;;;;;;;5.29;90.80;96275.13;29396;209;63015;-57
2022/11/24 01:45:40;;;;;;;0.60;0.60;;;;;;;5.29;91.15;96279.69;29396;219;63005;-57
2022/11/24 01:46:42;;;;;;;0.50;0.50;;;;;;;5.30;91.24;96275.91;29395;197;64009;-56
2022/11/24 01:47:45;;;;;;;0.60;0.60;;;;;;;5.47;90.30;96272.91;29417;319;64013;-57
2022/11/24 01:48:30;;;;;;;0.50;0.50;;;;;;;5.47;90.39;96281.78;29395;202;64009;-57
2022/11/24 01:49:47;;;;;;;0.50;0.50;;;;;;;5.51;90.09;96282.06;29395;226;64013;-58
2022/11/24 01:50:19;;;;;;;0.60;0.60;;;;;;;5.60;89.55;96285.75;29396;236;63005;-57
2022/11/24 01:50:56;;;;;;;0.70;0.70;;;;;;;5.60;89.37;96285.75;29396;198;63009;-57
2022/11/24 01:51:32;;;;;;;0.50;0.50;;;;;;;5.59;89.57;96290.34;29396;223;63005;-57
2022/11/24 01:52:14;;;;;;;0.60;0.60;;;;;;;5.57;89.58;96286.31;29397;259;63009;-57
2022/11/24 01:52:50;;;;;;;0.60;0.60;;;;;;;5.54;89.91;96282.31;29397;283;63005;-57
2022/11/24 01:53:23;;;;;;;0.50;0.50;;;;;;;5.53;89.90;96287.97;29396;248;64013;-58
2022/11/24 01:54:04;;;;;;;0.60;0.60;;;;;;;5.52;89.84;96289.03;29397;204;63004;-57
2022/11/24 01:54:56;;;;;;;0.50;0.50;;;;;;;5.51;90.05;96290.13;29397;204;63009;-58
2022/11/24 01:55:35;;;;;;;0.60;0.60;;;;;;;5.51;89.99;96287.44;29397;203;63004;-57
2022/11/24 01:56:07;;;;;;;0.50;0.50;;;;;;;5.56;89.94;96287.38;29397;202;63008;-58
2022/11/24 01:56:42;;;;;;;0.60;0.60;;;;;;;5.56;89.94;96290.06;29397;199;63004;-59
2022/11/24 01:57:24;;;;;;;0.60;0.60;;;;;;;5.54;90.20;96287.69;29397;240;63009;-57
2022/11/24 01:58:02;;;;;;;0.60;0.60;;;;;;;5.54;89.91;96292.25;29397;265;63010;-57
2022/11/24 01:58:35;;;;;;;0.50;0.50;;;;;;;5.52;90.22;96284.47;29396;203;64013;-57
2022/11/24 01:59:11;;;;;;;0.60;0.60;;;;;;;5.58;90.18;96296.00;29397;209;63005;-57
2022/11/24 01:59:47;;;;;;;0.60;0.60;;;;;;;5.60;90.06;96286.56;29397;236;63009;-57
2022/11/24 02:00:19;;;;;;;0.60;0.60;;;;;;;5.62;89.63;96288.97;29397;225;63004;-57
2022/11/24 02:00:52;;;;;;;0.60;0.60;;;;;;;5.61;89.69;96292.75;29397;305;63009;-57
2022/11/24 02:01:25;;;;;;;0.50;0.50;;;;;;;5.61;89.84;96292.75;29397;204;63004;-57
2022/11/24 02:01:56;;;;;;;0.50;0.50;;;;;;;5.62;89.80;96288.97;29397;325;63009;-59
2022/11/24 02:02:29;;;;;;;0.50;0.50;;;;;;;5.60;89.66;96291.13;29397;255;63004;-57
2022/11/24 02:03:01;;;;;;;0.50;0.50;;;;;;;5.60;89.88;96293.84;29397;368;63008;-57
2022/11/24 02:03:37;;;;;;;0.60;0.60;;;;;;;5.63;89.72;96302.16;29396;214;64008;-57
2022/11/24 02:04:14;;;;;;;0.60;0.60;;;;;;;5.62;89.60;96288.97;29397;204;63008;-57
2022/11/24 02:04:49;;;;;;;0.50;0.50;;;;;;;5.62;90.06;96300.56;29397;238;63005;-57
2022/11/24 02:05:47;;;;;;;0.50;0.50;;;;;;;5.61;90.03;96296.25;29396;239;63009;-58
2022/11/24 02:06:25;;;;;;;0.50;0.50;;;;;;;5.61;89.82;96295.44;29396;260;63005;-57
2022/11/24 02:07:00;;;;;;;0.50;0.50;;;;;;;5.61;89.93;96304.31;29396;291;63017;-57
2022/11/24 02:07:35;;;;;;;0.50;0.50;;;;;;;5.62;90.19;96299.75;29396;207;63005;-58
2022/11/24 02:08:20;;;;;;;0.50;0.50;;;;;;;5.62;90.14;96294.38;29395;199;64013;-57
2022/11/24 02:09:10;;;;;;;0.60;0.60;;;;;;;5.62;90.04;96299.75;29396;212;63004;-58
2022/11/24 02:09:50;;;;;;;0.50;0.50;;;;;;;5.61;90.28;96298.13;29396;213;63009;-57
2022/11/24 02:10:22;;;;;;;0.50;0.50;;;;;;;5.63;90.38;96298.66;29396;243;63004;-57
2022/11/24 02:10:54;;;;;;;0.57;0.57;;;;;;;5.64;90.45;96298.41;29396;218;63008;-57
2022/11/24 02:11:29;;;;;;;0.50;0.50;;;;;;;5.65;90.47;96293.81;29396;254;63005;-57
2022/11/24 02:12:02;;;;;;;0.50;0.50;;;;;;;5.65;90.21;96293.81;29396;292;63009;-58
2022/11/24 02:12:35;;;;;;;0.50;0.50;;;;;;;5.65;90.24;96297.31;29396;352;63005;-58
2022/11/24 02:13:07;;;;;;;0.50;0.50;;;;;;;5.65;90.15;96293.81;29395;212;64013;-59
2022/11/24 02:13:41;;;;;;;0.50;0.50;;;;;;;5.66;90.47;96295.44;29395;247;64009;-70
2022/11/24 02:14:17;;;;;;;0.60;0.60;;;;;;;5.65;90.37;96288.44;29396;221;63009;-70
2022/11/24 02:14:48;;;;;;;0.55;0.55;;;;;;;5.67;90.07;96297.03;29396;215;63005;-58
2022/11/24 02:15:20;;;;;;;0.60;0.60;;;;;;;5.67;90.45;96302.41;29397;314;63009;-57
2022/11/24 02:15:53;;;;;;;0.50;0.50;;;;;;;5.69;90.30;96300.25;29396;228;63004;-58
2022/11/24 02:16:25;;;;;;;0.50;0.50;;;;;;;5.69;90.00;96303.75;29396;252;63009;-57
2022/11/24 02:16:56;;;;;;;0.50;0.50;;;;;;;5.69;90.19;96301.06;29396;206;63004;-57
2022/11/24 02:17:28;;;;;;;1.25;1.15;;;;;;;5.68;90.17;96301.34;29396;244;63009;-57
2022/11/24 02:17:59;;;;;;;0.50;0.50;;;;;;;5.68;90.00;96304.03;29396;235;63004;-58
2022/11/24 02:18:31;;;;;;;0.50;0.50;;;;;;;5.68;90.01;96298.66;29395;221;64013;-57
2022/11/24 02:19:27;;;;;;;0.50;0.50;;;;;;;5.68;90.08;96306.72;29395;210;64005;-58
2022/11/24 02:20:04;;;;;;;0.50;0.50;;;;;;;5.70;90.06;96301.88;29396;223;63013;-71
2022/11/24 02:20:35;;;;;;;0.50;0.50;;;;;;;5.70;89.76;96304.56;29397;208;63005;-57
2022/11/24 02:21:08;;;;;;;0.50;0.50;;;;;;;5.70;89.70;96307.25;29396;197;63009;-57
2022/11/24 02:21:39;;;;;;;0.50;0.50;;;;;;;5.68;90.09;96302.16;29396;309;63005;-57
2022/11/24 02:22:53;;;;;;;0.50;0.50;;;;;;;5.65;90.11;96304.59;29396;228;63009;-58
2022/11/24 02:24:02;;;;;;;0.50;0.50;;;;;;;5.61;90.15;96304.31;29396;204;63004;-57
2022/11/24 02:24:46;;;;;;;0.50;0.50;;;;;;;5.60;89.97;96307.28;29395;206;64013;-57
2022/11/24 02:25:43;;;;;;;0.50;0.50;;;;;;;5.55;90.06;96304.63;29396;277;63004;-58
2022/11/24 02:26:47;;;;;;;0.60;0.60;;;;;;;5.51;90.57;96304.37;29396;198;63009;-59
2022/11/24 02:27:19;;;;;;;0.60;0.60;;;;;;;5.59;89.58;96316.44;29396;327;63005;-59
2022/11/24 02:27:52;;;;;;;0.50;0.50;;;;;;;5.60;89.38;96309.97;29396;229;63009;-57
2022/11/24 02:28:29;;;;;;;0.50;0.50;;;;;;;5.58;89.57;96310.25;29396;218;63005;-57
2022/11/24 02:29:01;;;;;;;0.57;0.57;;;;;;;5.55;89.34;96304.63;29395;197;64013;-59
2022/11/24 02:29:32;;;;;;;0.60;0.60;;;;;;;5.53;89.50;96312.19;29396;214;63005;-56
2022/11/24 02:30:04;;;;;;;0.50;0.50;;;;;;;5.50;89.91;96307.34;29396;263;63009;-57
2022/11/24 02:30:37;;;;;;;0.60;0.60;;;;;;;5.47;90.06;96297.13;29396;235;63004;-57
2022/11/24 02:31:09;;;;;;;0.50;0.50;;;;;;;5.46;89.90;96301.72;29395;376;64013;-71
2022/11/24 02:31:47;;;;;;;0.60;0.60;;;;;;;5.44;90.14;96308.44;29396;213;63004;-57
2022/11/24 02:32:19;;;;;;;0.50;0.50;;;;;;;5.42;90.16;96306.03;29396;208;63009;-58
2022/11/24 02:32:51;;;;;;;0.50;0.50;;;;;;;5.39;90.13;96295.81;29396;214;63004;-59
2022/11/24 02:33:24;;;;;;;0.50;0.50;;;;;;;5.38;90.48;96299.56;29396;211;63008;-57
2022/11/24 02:33:56;;;;;;;0.60;0.60;;;;;;;5.39;90.31;96301.19;29396;238;63005;-57
2022/11/24 02:34:28;;;;;;;0.50;0.50;;;;;;;5.43;90.67;96304.13;29395;244;64014;-58
2022/11/24 02:35:06;;;;;;;0.60;0.60;;;;;;;5.46;90.17;96300.91;29396;214;63005;-57
2022/11/24 02:35:38;;;;;;;0.60;0.60;;;;;;;5.48;90.27;96302.25;29396;239;63009;-57
2022/11/24 02:36:09;;;;;;;0.55;0.55;;;;;;;5.53;90.19;96296.03;29396;209;63009;-58
2022/11/24 02:36:41;;;;;;;0.50;0.50;;;;;;;5.53;90.24;96296.03;29396;231;63009;-57
2022/11/24 02:37:12;;;;;;;0.60;0.60;;;;;;;5.54;89.73;96292.25;29396;237;63005;-57
2022/11/24 02:37:43;;;;;;;0.55;0.55;;;;;;;5.54;89.91;96300.34;29396;206;63009;-57
2022/11/24 02:38:15;;;;;;;0.57;0.57;;;;;;;5.51;89.52;96304.37;29396;235;63004;-58
2022/11/24 02:38:47;;;;;;;0.60;0.60;;;;;;;5.48;89.87;96304.94;29396;238;63009;-57
2022/11/24 02:39:18;;;;;;;0.55;0.55;;;;;;;5.50;89.91;96297.37;29395;288;64009;-58
2022/11/24 02:39:49;;;;;;;0.50;0.50;;;;;;;5.53;89.73;96301.41;29396;216;63009;-57
2022/11/24 02:40:24;;;;;;;0.50;0.50;;;;;;;5.50;89.71;96293.91;29395;239;64009;-57
2022/11/24 02:40:56;;;;;;;1.75;1.05;;;;;;;5.49;90.02;96294.97;29396;259;63008;-57
2022/11/24 02:41:28;;;;;;;0.50;0.50;;;;;;;5.50;89.89;96299.28;29396;204;63017;-57
2022/11/24 02:42:05;;;;;;;0.50;0.50;;;;;;;5.46;90.02;96298.22;29396;231;63009;-57
2022/11/24 02:42:42;;;;;;;0.60;0.60;;;;;;;5.43;90.04;96296.06;29396;206;63005;-57
2022/11/24 02:43:21;;;;;;;0.50;0.50;;;;;;;5.43;90.17;96290.69;29439;232;64013;-58
2022/11/24 02:43:59;;;;;;;0.50;0.50;;;;;;;5.41;90.30;96290.97;29375;224;63005;-57
2022/11/24 02:44:40;;;;;;;0.50;0.50;;;;;;;5.39;90.42;96293.12;29396;203;63009;-57
2022/11/24 02:45:13;;;;;;;0.50;0.50;;;;;;;5.37;90.44;96296.06;29417;203;64009;-57